Change the Weather History Date:

Saturday, January 11, 2014

  Actual Average (KSNY) Record (KSNY)
Temperature  
Mean Temperature 42 °F 29 °F  
Max Temperature 56 °F 42 °F 70 °F (1990)
Min Temperature 29 °F 16 °F -22 °F (1963)
Degree Days  
Heating Degree Days 23 36  
Month to date heating degree days 396  
Since 1 July heating degree days 2943  
Cooling Degree Days 0 0  
Month to date cooling degree days 0  
Year to date cooling degree days 0  
Moisture  
Dew Point 22 °F    
Average Humidity 51    
Maximum Humidity 72    
Minimum Humidity 28    
Precipitation  
Precipitation 0.00 in 0.01 in 0.05 in (2013)
Month to date precipitation 0.08  
Year to date precipitation 0.08  
Sea Level Pressure  
Sea Level Pressure 29.78 in    
Wind  
Wind Speed 16 mph (West)    
Max Wind Speed 29 mph    
Max Gust Speed 40 mph    
Visibility 10 miles    
Events      
T = Trace of Precipitation, MM = Missing Value Source: NWS Daily Summary

Daily Weather History Graph

Daily Weather History Graph

Search for Another Location

Airport or City:

Trip Planner

Search our weather history database for the weather conditions in past years. The results will help you decide how hot, cold, wet, or windy it might be!

Date:

Astronomy

Jan. 11, 2014 Rise Set
Actual Time 8:19 AM CST 5:46 PM CST
Civil Twilight 7:48 AM CST 6:17 PM CST
Nautical Twilight 7:14 AM CST 6:51 PM CST
Astronomical Twilight 6:41 AM CST 7:24 PM CST
Moon 2:32 PM CST (1/11) 4:25 AM CST (1/11)
Length of Visible Light 10h 28m
Length of Day
9h 27m
Waxing Gibbous, 83% of the Moon is Illuminated
Jan 11
Waxing Gibbous
Jan 15
Full
Jan 23
Last Quarter
Jan 30
New
Feb 6
First Quarter

Hourly Weather History & Observations

Time (CST) Temp. Windchill Dew Point Humidity Pressure Visibility Wind Dir Wind Speed Gust Speed Precip Events Conditions
12:15 AM 34.9 °F 23.6 °F 20.3 °F 55% 29.79 in 10.0 mi WNW 20.7 mph 27.6 mph N/A   Overcast
12:35 AM 35.1 °F 23.3 °F 19.9 °F 54% 29.79 in 10.0 mi WNW 23.0 mph 31.1 mph N/A   Overcast
12:55 AM 34.7 °F 22.8 °F 19.4 °F 54% 29.80 in 10.0 mi WNW 23.0 mph 27.6 mph N/A   Overcast
1:15 AM 34.2 °F 23.0 °F 19.4 °F 55% 29.79 in 10.0 mi WNW 19.6 mph 27.6 mph N/A   Overcast
1:35 AM 33.1 °F 20.9 °F 19.4 °F 57% 29.79 in 10.0 mi WNW 21.9 mph 27.6 mph N/A   Scattered Clouds
1:55 AM 33.4 °F 20.3 °F 19.4 °F 56% 29.80 in 10.0 mi WNW 26.5 mph 29.9 mph N/A   Mostly Cloudy
2:15 AM 33.4 °F 21.1 °F 19.6 °F 57% 29.81 in 10.0 mi WNW 23.0 mph 31.1 mph N/A   Overcast
2:35 AM 33.8 °F 22.2 °F 19.8 °F 56% 29.83 in 10.0 mi WNW 20.7 mph 25.3 mph N/A   Overcast
2:55 AM 32.9 °F 21.3 °F 19.8 °F 59% 29.84 in 10.0 mi WNW 19.6 mph 28.8 mph N/A   Scattered Clouds
3:15 AM 32.9 °F 21.3 °F 19.9 °F 59% 29.84 in 10.0 mi WNW 19.6 mph 28.8 mph N/A   Clear
3:35 AM 32.0 °F 20.8 °F 19.9 °F 61% 29.85 in 10.0 mi WNW 17.3 mph - N/A   Clear
3:55 AM 32.5 °F 21.2 °F 19.8 °F 59% 29.86 in 10.0 mi WNW 18.4 mph - N/A   Clear
4:15 AM 32.9 °F 22.0 °F 20.1 °F 59% 29.87 in 10.0 mi WNW 17.3 mph - N/A   Mostly Cloudy
4:35 AM 33.8 °F 24.3 °F 20.1 °F 57% 29.87 in 10.0 mi WNW 13.8 mph - N/A   Overcast
4:55 AM 33.3 °F 24.6 °F 20.3 °F 59% 29.87 in 10.0 mi WNW 11.5 mph - N/A   Overcast
5:15 AM 33.3 °F 25.7 °F 20.7 °F 60% 29.88 in 10.0 mi NW 9.2 mph - N/A   Overcast
5:35 AM 33.1 °F 25.5 °F 20.7 °F 60% 29.88 in 10.0 mi NNW 9.2 mph - N/A   Mostly Cloudy
5:55 AM 30.4 °F 22.2 °F 20.3 °F 66% 29.88 in 10.0 mi NNW 9.2 mph - N/A   Scattered Clouds
6:15 AM 31.5 °F 24.2 °F 20.7 °F 64% 29.89 in 10.0 mi NNW 8.1 mph - N/A   Clear
6:35 AM 29.8 °F 20.9 °F 21.0 °F 70% 29.88 in 10.0 mi NNW 10.4 mph - N/A   Clear
6:55 AM 31.1 °F 23.7 °F 21.7 °F 68% 29.88 in 10.0 mi NNW 8.1 mph - N/A   Scattered Clouds
7:15 AM 29.3 °F 19.6 °F 21.2 °F 72% 29.87 in 10.0 mi North 11.5 mph - N/A   Scattered Clouds
7:35 AM 30.9 °F 21.2 °F 21.9 °F 69% 29.85 in 10.0 mi NNW 12.7 mph - N/A   Mostly Cloudy
7:55 AM 32.2 °F 21.4 °F 23.2 °F 69% 29.84 in 10.0 mi NNW 16.1 mph - N/A   Scattered Clouds
8:15 AM 33.8 °F 24.8 °F 23.9 °F 67% 29.85 in 10.0 mi NNW 12.7 mph - N/A   Clear
8:35 AM 32.0 °F 24.8 °F 23.4 °F 70% 29.87 in 10.0 mi NW 8.1 mph - N/A   Clear
8:55 AM 31.6 °F 26.0 °F 23.0 °F 70% 29.87 in 10.0 mi North 5.8 mph - N/A   Clear
9:15 AM 32.4 °F 29.1 °F 23.9 °F 71% 29.88 in 10.0 mi NNW 3.5 mph - N/A   Clear
9:35 AM 36.1 °F 29.3 °F 25.2 °F 64% 29.87 in 10.0 mi NW 9.2 mph - N/A   Clear
9:55 AM 37.6 °F 31.6 °F 25.2 °F 61% 29.87 in 10.0 mi NW 8.1 mph - N/A   Clear
10:15 AM 37.9 °F 32.1 °F 24.6 °F 59% 29.89 in 10.0 mi WSW 8.1 mph - N/A   Clear
10:35 AM 40.3 °F 34.9 °F 24.3 °F 53% 29.89 in 10.0 mi West 8.1 mph - N/A   Clear
10:55 AM 43.0 °F 36.4 °F 21.2 °F 42% 29.89 in 10.0 mi West 12.7 mph - N/A   Clear
11:10 AM 45.3 °F 39.7 °F 18.3 °F 34% 29.89 in 10.0 mi WSW 11.5 mph - N/A   Clear
11:35 AM 47.1 °F - 19.4 °F 33% 29.88 in 10.0 mi WSW 16.1 mph - N/A   Clear
11:55 AM 48.2 °F - 20.1 °F 33% 29.87 in 10.0 mi WSW 15.0 mph 19.6 mph N/A   Clear
12:15 PM 50.5 °F - 20.8 °F 31% 29.84 in 10.0 mi WSW 15.0 mph 18.4 mph N/A   Clear
12:35 PM 51.1 °F - 20.7 °F 30% 29.83 in 10.0 mi WSW 18.4 mph - N/A   Clear
12:55 PM 51.8 °F - 21.2 °F 30% 29.81 in 10.0 mi WSW 17.3 mph - N/A   Clear
1:15 PM 53.6 °F - 22.1 °F 29% 29.79 in 10.0 mi WSW 20.7 mph 27.6 mph N/A   Clear
1:35 PM 52.2 °F - 21.4 °F 30% 29.79 in 10.0 mi WSW 19.6 mph 27.6 mph N/A   Clear
1:55 PM 52.9 °F - 21.9 °F 30% 29.78 in 10.0 mi West 23.0 mph 31.1 mph N/A   Clear
2:15 PM 53.8 °F - 21.9 °F 29% 29.77 in 10.0 mi West 23.0 mph 31.1 mph N/A   Clear
2:35 PM 54.7 °F - 22.8 °F 29% 29.75 in 10.0 mi West 28.8 mph 34.5 mph N/A   Clear
2:55 PM 55.8 °F - 23.5 °F 29% 29.75 in 10.0 mi West 27.6 mph 40.3 mph N/A   Clear
3:15 PM 55.9 °F - 23.4 °F 28% 29.74 in 10.0 mi West 27.6 mph 40.3 mph N/A   Clear
3:35 PM 55.4 °F - 23.2 °F 29% 29.74 in 10.0 mi West 28.8 mph 35.7 mph N/A   Clear
4:00 PM 54.3 °F - 23.4 °F 30% 29.74 in 10.0 mi West 16.1 mph 32.2 mph N/A   Clear
4:15 PM 53.8 °F - 23.7 °F 31% 29.73 in 10.0 mi WSW 15.0 mph 20.7 mph N/A   Clear
4:35 PM 52.0 °F - 21.6 °F 30% 29.72 in 10.0 mi SW 13.8 mph - N/A   Clear
4:55 PM 48.9 °F - 21.2 °F 34% 29.71 in 10.0 mi SW 9.2 mph - N/A   Clear
5:15 PM 46.8 °F - 21.6 °F 37% 29.70 in 10.0 mi SSW 9.2 mph - N/A   Clear
5:35 PM 44.4 °F 40.0 °F 22.1 °F 41% 29.70 in 10.0 mi SSW 8.1 mph - N/A   Clear
5:55 PM 43.2 °F 38.4 °F 22.1 °F 43% 29.71 in 10.0 mi South 8.1 mph - N/A   Clear
6:15 PM 41.7 °F 36.1 °F 22.6 °F 47% 29.71 in 10.0 mi South 9.2 mph - N/A   Clear
6:35 PM 41.0 °F 34.7 °F 23.2 °F 49% 29.70 in 10.0 mi SSW 10.4 mph - N/A   Clear
6:55 PM 40.3 °F - 23.0 °F 50% 29.69 in 10.0 mi Calm Calm - N/A   Clear
7:15 PM 41.7 °F 35.2 °F 23.7 °F 49% 29.68 in 10.0 mi SSW 11.5 mph - N/A   Clear
7:35 PM 40.1 °F 34.7 °F 23.9 °F 52% 29.68 in 10.0 mi SSW 8.1 mph - N/A   Clear
7:55 PM 39.6 °F 33.0 °F 24.3 °F 54% 29.68 in 10.0 mi SSW 10.4 mph - N/A   Clear
8:15 PM 42.8 °F 37.5 °F 24.1 °F 48% 29.67 in 10.0 mi SW 9.2 mph - N/A   Clear
8:35 PM 39.7 °F 34.9 °F 24.6 °F 55% 29.66 in 10.0 mi SW 6.9 mph - N/A   Clear
8:55 PM 39.0 °F 32.3 °F 24.8 °F 57% 29.66 in 10.0 mi SW 10.4 mph - N/A   Clear
9:15 PM 36.9 °F 28.7 °F 24.4 °F 61% 29.66 in 10.0 mi SSW 12.7 mph - N/A   Clear
9:35 PM 39.0 °F 32.8 °F 24.3 °F 55% 29.65 in 10.0 mi WSW 9.2 mph - N/A   Clear
9:55 PM 38.1 °F 31.7 °F 24.1 °F 57% 29.65 in 10.0 mi WNW 9.2 mph - N/A   Clear
10:15 PM 38.7 °F 32.4 °F 24.3 °F 56% 29.64 in 10.0 mi West 9.2 mph - N/A   Clear
10:35 PM 37.0 °F 29.8 °F 24.8 °F 61% 29.65 in 10.0 mi WSW 10.4 mph - N/A   Clear
10:55 PM 36.9 °F 29.6 °F 25.2 °F 63% 29.64 in 10.0 mi West 10.4 mph - N/A   Scattered Clouds
11:15 PM 38.1 °F 30.2 °F 25.2 °F 60% 29.65 in 10.0 mi WNW 12.7 mph - N/A   Scattered Clouds
11:35 PM 41.4 °F 34.3 °F 24.8 °F 52% 29.64 in 10.0 mi West 12.7 mph - N/A   Clear
11:55 PM 39.9 °F 32.5 °F 24.8 °F 55% 29.64 in 10.0 mi West 12.7 mph - N/A   Clear